createdAt,value
2023-06-22T00:00:46.990Z,2.57
2023-06-22T00:01:50.379Z,2.00
2023-06-22T00:02:53.769Z,2.43
2023-06-22T00:03:57.179Z,2.57
2023-06-22T00:05:00.614Z,2.00
2023-06-22T00:06:04.111Z,2.00
2023-06-22T00:07:07.597Z,2.00
2023-06-22T00:08:11.193Z,2.00
2023-06-22T00:09:14.681Z,1.75
2023-06-22T00:10:18.065Z,2.00
2023-06-22T00:11:21.658Z,2.57
2023-06-22T00:12:25.014Z,2.43
2023-06-22T00:13:28.529Z,2.57
2023-06-22T00:14:32.120Z,2.00
2023-06-22T00:15:35.414Z,2.00
2023-06-22T00:16:38.929Z,2.43
2023-06-22T00:17:43.201Z,2.57
2023-06-22T00:18:46.697Z,2.50
2023-06-22T00:19:50.080Z,3.00
2023-06-22T00:20:53.569Z,3.00
2023-06-22T00:21:57.059Z,3.00
2023-06-22T00:23:00.236Z,3.00
2023-06-22T00:24:03.417Z,2.71
2023-06-22T00:26:25.655Z,3.00
2023-06-22T00:27:29.060Z,2.43
2023-06-22T00:28:32.436Z,2.57
2023-06-22T00:29:35.525Z,2.00
2023-06-22T00:30:38.725Z,2.43
2023-06-22T00:31:42.039Z,3.00
2023-06-22T00:32:45.402Z,2.67
2023-06-22T00:33:48.540Z,1.86
2023-06-22T00:34:51.636Z,1.00
2023-06-22T00:35:55.024Z,1.00
2023-06-22T00:36:58.152Z,1.14
2023-06-22T00:38:01.923Z,1.57
2023-06-22T00:39:05.447Z,1.00
2023-06-22T00:40:09.166Z,0.57
2023-06-22T00:41:12.565Z,0.00
2023-06-22T00:42:15.937Z,0.43
2023-06-22T00:43:19.445Z,1.00
2023-06-22T00:44:23.226Z,1.00
2023-06-22T00:45:26.636Z,1.00
2023-06-22T00:46:30.116Z,1.00
2023-06-22T00:47:33.641Z,0.57
2023-06-22T00:48:37.081Z,0.43
2023-06-22T00:49:40.565Z,0.29
2023-06-22T00:50:44.055Z,0.00
2023-06-22T00:51:47.337Z,0.00
2023-06-22T00:52:50.929Z,0.00
2023-06-22T00:53:54.370Z,0.00
2023-06-22T00:54:58.141Z,0.14
2023-06-22T00:56:01.408Z,0.14
2023-06-22T00:57:04.658Z,0.00
2023-06-22T00:58:07.872Z,0.00
2023-06-22T00:59:11.163Z,0.33
2023-06-22T01:00:14.364Z,0.67
2023-06-22T01:01:17.455Z,0.33
2023-06-22T01:02:20.694Z,1.43
2023-06-22T01:03:23.939Z,1.83
2023-06-22T01:04:27.077Z,0.00
2023-06-22T01:05:30.270Z,0.00
2023-06-22T01:06:33.527Z,0.14
2023-06-22T01:07:36.832Z,0.43
2023-06-22T01:08:40.100Z,0.00
2023-06-22T01:09:43.591Z,0.00
2023-06-22T01:10:47.072Z,0.00
2023-06-22T01:11:50.456Z,0.43
2023-06-22T01:12:54.932Z,1.50
2023-06-22T01:13:58.255Z,1.67
2023-06-22T01:15:01.650Z,1.00
2023-06-22T01:16:05.126Z,1.00
2023-06-22T01:17:08.628Z,1.00
2023-06-22T01:18:12.106Z,1.43
2023-06-22T01:19:15.517Z,2.00
2023-06-22T01:20:18.876Z,1.67
2023-06-22T01:21:22.144Z,1.00
2023-06-22T01:22:25.547Z,1.00
2023-06-22T01:23:29.038Z,1.00
2023-06-22T01:24:32.447Z,1.00
2023-06-22T01:25:35.831Z,1.00
2023-06-22T01:26:39.143Z,1.29
2023-06-22T01:27:42.443Z,1.00
2023-06-22T01:28:45.668Z,1.00
2023-06-22T01:29:49.014Z,1.17
2023-06-22T01:30:52.545Z,1.00
2023-06-22T01:31:55.925Z,1.00
2023-06-22T01:32:59.496Z,1.43
2023-06-22T01:34:02.914Z,1.57
2023-06-22T01:35:06.496Z,1.14
2023-06-22T01:36:09.748Z,1.43
2023-06-22T01:37:13.301Z,1.57
2023-06-22T01:38:16.561Z,1.43
2023-06-22T01:39:19.915Z,1.57
2023-06-22T01:40:23.231Z,1.43
2023-06-22T01:41:26.594Z,1.00
2023-06-22T01:42:29.904Z,0.57
2023-06-22T01:43:33.292Z,0.00
2023-06-22T01:44:36.683Z,0.00
2023-06-22T01:45:40.173Z,0.00
2023-06-22T01:46:44.618Z,0.00
2023-06-22T01:47:47.928Z,0.00
2023-06-22T01:48:51.254Z,0.00
2023-06-22T01:49:57.826Z,0.00
2023-06-22T01:51:01.293Z,0.00
2023-06-22T01:52:04.577Z,0.00
2023-06-22T01:53:07.861Z,0.00
2023-06-22T01:54:11.243Z,0.00
2023-06-22T01:55:14.337Z,0.00
2023-06-22T01:56:17.522Z,0.00
2023-06-22T01:57:20.712Z,0.00
2023-06-22T01:58:23.920Z,0.00
2023-06-22T01:59:26.929Z,0.00
2023-06-22T02:00:30.483Z,0.00
2023-06-22T02:01:33.900Z,0.00
2023-06-22T02:02:37.278Z,0.00
2023-06-22T02:03:40.777Z,0.00
2023-06-22T02:04:43.994Z,0.00
2023-06-22T02:05:47.211Z,0.00
2023-06-22T02:06:50.657Z,0.00
2023-06-22T02:07:53.805Z,0.00
2023-06-22T02:08:57.026Z,0.00
2023-06-22T02:10:00.620Z,0.00
2023-06-22T02:11:05.035Z,0.00
2023-06-22T02:12:08.532Z,0.00
2023-06-22T02:13:11.904Z,0.00
2023-06-22T02:14:15.804Z,0.00
2023-06-22T02:15:19.787Z,0.00
2023-06-22T02:16:23.190Z,0.00
2023-06-22T02:17:26.680Z,0.00
2023-06-22T02:18:30.173Z,0.00
2023-06-22T02:19:36.519Z,0.00
2023-06-22T02:20:39.709Z,0.00
2023-06-22T02:21:43.094Z,0.00
2023-06-22T02:22:46.485Z,0.00
2023-06-22T02:23:49.833Z,0.00
2023-06-22T02:24:53.414Z,0.00
2023-06-22T02:25:56.640Z,0.00
2023-06-22T02:27:05.631Z,0.00
2023-06-22T02:28:08.792Z,0.00
2023-06-22T02:29:11.916Z,0.33
2023-06-22T02:30:15.096Z,0.00
2023-06-22T02:31:18.452Z,0.33
2023-06-22T02:32:21.583Z,0.00
2023-06-22T02:33:24.781Z,0.00
2023-06-22T02:34:27.928Z,0.00
2023-06-22T02:35:31.115Z,0.29
2023-06-22T02:36:34.308Z,0.43
2023-06-22T02:37:37.918Z,0.00
2023-06-22T02:38:41.074Z,0.00
2023-06-22T02:39:44.269Z,0.14
2023-06-22T02:40:47.634Z,0.00
2023-06-22T02:41:50.917Z,0.00
2023-06-22T02:42:54.211Z,0.00
2023-06-22T02:43:57.489Z,0.57
2023-06-22T02:45:00.772Z,0.00
2023-06-22T02:46:03.972Z,0.00
2023-06-22T02:47:13.385Z,0.00
2023-06-22T02:48:16.607Z,0.37
2023-06-22T02:49:19.860Z,0.57
2023-06-22T02:50:23.241Z,0.14
2023-06-22T02:51:26.530Z,0.00
2023-06-22T02:52:29.721Z,0.33
2023-06-22T02:53:33.023Z,1.14
2023-06-22T02:54:36.378Z,1.57
2023-06-22T02:55:39.524Z,1.33
2023-06-22T02:56:43.283Z,1.00
2023-06-22T02:57:46.431Z,1.00
2023-06-22T02:58:49.614Z,0.57
2023-06-22T02:59:52.728Z,0.00
2023-06-22T03:00:55.963Z,0.00
2023-06-22T03:01:59.260Z,0.00
2023-06-22T03:03:02.525Z,0.00
2023-06-22T03:04:05.880Z,0.00
2023-06-22T03:05:09.016Z,0.00
2023-06-22T03:06:12.400Z,0.00
2023-06-22T03:07:15.596Z,0.00
2023-06-22T03:08:18.763Z,0.00
2023-06-22T03:09:22.042Z,0.17
2023-06-22T03:10:25.332Z,0.00
2023-06-22T03:11:28.516Z,0.50
2023-06-22T03:12:31.701Z,0.00
2023-06-22T03:13:34.792Z,0.00
2023-06-22T03:14:38.059Z,0.00
2023-06-22T03:15:41.236Z,0.00
2023-06-22T03:16:44.419Z,0.00
2023-06-22T03:17:47.618Z,0.00
2023-06-22T03:18:50.897Z,0.00
2023-06-22T03:19:54.297Z,0.00
2023-06-22T03:20:57.374Z,0.00
2023-06-22T03:22:00.446Z,0.00
2023-06-22T03:23:03.858Z,0.00
2023-06-22T03:24:06.905Z,0.00
2023-06-22T03:25:10.090Z,0.00
2023-06-22T03:26:13.158Z,0.00
2023-06-22T03:27:16.458Z,0.00
2023-06-22T03:28:19.735Z,0.57
2023-06-22T03:29:22.923Z,0.00
2023-06-22T03:30:26.313Z,0.00
2023-06-22T03:31:29.603Z,0.00
2023-06-22T03:32:33.075Z,0.00
2023-06-22T03:33:36.144Z,0.00
2023-06-22T03:34:39.326Z,0.00
2023-06-22T03:35:42.574Z,0.00
2023-06-22T03:36:45.915Z,0.00
2023-06-22T03:37:49.180Z,0.14
2023-06-22T03:38:52.266Z,0.00
2023-06-22T03:39:55.457Z,0.43
2023-06-22T03:40:58.788Z,0.67
2023-06-22T03:42:01.942Z,0.43
2023-06-22T03:43:05.001Z,0.00
2023-06-22T03:44:08.311Z,0.33
2023-06-22T03:45:11.468Z,0.57
2023-06-22T03:46:14.665Z,0.00
2023-06-22T03:47:18.032Z,0.00
2023-06-22T03:48:21.205Z,0.00
2023-06-22T03:49:24.396Z,0.00
2023-06-22T03:50:27.976Z,0.00
2023-06-22T03:51:31.365Z,0.00
2023-06-22T03:52:34.649Z,0.00
2023-06-22T03:53:37.745Z,0.00
2023-06-22T03:54:41.018Z,0.00
2023-06-22T03:55:44.398Z,0.00
2023-06-22T03:56:47.683Z,0.29
2023-06-22T03:57:50.879Z,0.00
2023-06-22T03:58:54.164Z,0.00
2023-06-22T03:59:57.438Z,0.00
2023-06-22T04:01:00.721Z,0.00
2023-06-22T04:02:03.807Z,0.00
2023-06-22T04:03:07.059Z,0.00
2023-06-22T04:04:10.498Z,0.00
2023-06-22T04:05:13.838Z,0.00
2023-06-22T04:06:17.144Z,0.00
2023-06-22T04:07:20.258Z,0.00
2023-06-22T04:08:23.613Z,0.00
2023-06-22T04:09:26.891Z,0.00
2023-06-22T04:10:30.284Z,0.00
2023-06-22T04:11:33.670Z,0.00
2023-06-22T04:12:36.964Z,0.00
2023-06-22T04:13:40.227Z,0.00
2023-06-22T04:14:43.342Z,0.00
2023-06-22T04:15:46.420Z,0.00
2023-06-22T04:16:49.469Z,0.00
2023-06-22T04:17:52.692Z,0.00
2023-06-22T04:18:55.933Z,0.00
2023-06-22T04:19:59.137Z,0.00
2023-06-22T04:21:02.341Z,0.00
2023-06-22T04:22:05.784Z,0.00
2023-06-22T04:23:09.199Z,0.00
2023-06-22T04:24:12.356Z,0.00
2023-06-22T04:25:15.645Z,0.00
2023-06-22T04:26:18.890Z,0.00
2023-06-22T04:27:22.104Z,0.00
2023-06-22T04:28:27.827Z,0.00
2023-06-22T04:29:30.113Z,0.00
2023-06-22T04:30:33.496Z,0.00
2023-06-22T04:31:36.614Z,0.00
2023-06-22T04:32:39.767Z,0.00
2023-06-22T04:33:42.939Z,0.00
2023-06-22T04:34:46.032Z,0.43
2023-06-22T04:35:48.994Z,0.50
2023-06-22T04:36:52.294Z,0.43
2023-06-22T04:37:55.355Z,0.00
2023-06-22T04:38:58.555Z,0.00
2023-06-22T04:40:01.751Z,0.00
2023-06-22T04:41:07.593Z,0.00
2023-06-22T04:42:10.701Z,0.00
2023-06-22T04:43:13.941Z,0.00
2023-06-22T04:44:17.315Z,0.00
2023-06-22T04:45:20.728Z,0.00
2023-06-22T04:46:23.796Z,0.00
2023-06-22T04:47:27.000Z,0.00
2023-06-22T04:48:30.351Z,0.00
2023-06-22T04:49:33.534Z,0.00
2023-06-22T04:50:36.717Z,0.00
2023-06-22T04:51:39.891Z,0.00
2023-06-22T04:52:42.992Z,0.00
2023-06-22T04:53:46.175Z,0.00
2023-06-22T04:54:49.418Z,0.00
2023-06-22T04:55:52.530Z,0.00
2023-06-22T04:56:55.614Z,0.00
2023-06-22T04:57:58.930Z,0.00
2023-06-22T04:59:02.068Z,0.00
2023-06-22T05:00:05.152Z,0.00
2023-06-22T05:01:08.334Z,0.00
2023-06-22T05:02:11.524Z,0.00
2023-06-22T05:03:19.837Z,0.00
2023-06-22T05:04:19.125Z,0.00
2023-06-22T05:05:22.664Z,0.00
2023-06-22T05:06:25.978Z,0.43
2023-06-22T05:07:29.075Z,0.57
2023-06-22T05:08:32.454Z,0.00
2023-06-22T05:09:35.383Z,0.00
2023-06-22T05:10:39.964Z,0.00
2023-06-22T05:11:42.871Z,0.00
2023-06-22T05:12:46.108Z,0.00
2023-06-22T05:13:49.487Z,0.14
2023-06-22T05:14:52.778Z,0.00
2023-06-22T05:15:55.878Z,0.00
2023-06-22T05:16:59.049Z,0.00
2023-06-22T05:18:02.380Z,0.00
2023-06-22T05:19:05.522Z,0.00
2023-06-22T05:20:08.677Z,0.00
2023-06-22T05:21:12.169Z,0.00
2023-06-22T05:22:15.484Z,0.00
2023-06-22T05:23:18.640Z,0.14
2023-06-22T05:24:21.808Z,0.00
2023-06-22T05:25:24.998Z,0.00
2023-06-22T05:26:28.143Z,0.33
2023-06-22T05:27:31.360Z,0.43
2023-06-22T05:28:34.764Z,0.43
2023-06-22T05:29:38.144Z,0.00
2023-06-22T05:30:41.645Z,0.00
2023-06-22T05:31:44.912Z,0.00
2023-06-22T05:32:48.247Z,0.00
2023-06-22T05:33:51.474Z,0.14
2023-06-22T05:34:54.860Z,0.43
2023-06-22T05:35:58.552Z,0.00
2023-06-22T05:37:01.837Z,0.00
2023-06-22T05:38:05.238Z,0.00
2023-06-22T05:39:09.745Z,0.43
2023-06-22T05:40:13.188Z,0.50
2023-06-22T05:41:16.716Z,0.00
2023-06-22T05:42:20.341Z,1.00
2023-06-22T05:43:23.371Z,0.62
2023-06-22T05:44:26.784Z,0.67
2023-06-22T05:45:29.926Z,0.43
2023-06-22T05:46:33.140Z,0.67
2023-06-22T05:47:36.344Z,0.00
2023-06-22T05:48:39.414Z,0.00
2023-06-22T05:49:42.632Z,0.00
2023-06-22T05:50:45.777Z,0.00
2023-06-22T05:51:48.979Z,0.00
2023-06-22T05:52:52.128Z,0.43
2023-06-22T05:53:55.357Z,0.57
2023-06-22T05:54:58.497Z,0.86
2023-06-22T05:56:01.659Z,1.00
2023-06-22T05:57:04.861Z,1.00
2023-06-22T05:58:08.138Z,0.57
2023-06-22T05:59:11.226Z,0.43
2023-06-22T06:00:14.312Z,1.00
2023-06-22T06:01:17.539Z,1.00
2023-06-22T06:02:20.673Z,1.00
2023-06-22T06:03:23.793Z,1.00
2023-06-22T06:04:27.420Z,0.57
2023-06-22T06:05:30.927Z,1.00
2023-06-22T06:06:34.317Z,1.00
2023-06-22T06:07:37.652Z,1.00
2023-06-22T06:08:40.972Z,1.00
2023-06-22T06:09:44.260Z,1.00
2023-06-22T06:10:47.549Z,1.00
2023-06-22T06:11:50.887Z,1.00
2023-06-22T06:12:54.114Z,1.00
2023-06-22T06:13:57.530Z,1.00
2023-06-22T06:15:00.899Z,1.00
2023-06-22T06:16:04.477Z,1.00
2023-06-22T06:17:07.851Z,1.00
2023-06-22T06:18:11.382Z,1.00
2023-06-22T06:19:14.885Z,1.00
2023-06-22T06:20:18.336Z,1.00
2023-06-22T06:21:21.612Z,1.29
2023-06-22T06:22:24.974Z,1.43
2023-06-22T06:23:28.313Z,1.43
2023-06-22T06:24:31.573Z,1.57
2023-06-22T06:25:34.958Z,1.43
2023-06-22T06:26:38.620Z,2.00
2023-06-22T06:27:42.724Z,2.50
2023-06-22T06:28:46.258Z,2.57
2023-06-22T06:29:49.877Z,2.00
2023-06-22T06:30:53.186Z,2.43
2023-06-22T06:31:56.579Z,2.57
2023-06-22T06:33:00.045Z,2.43
2023-06-22T06:34:03.606Z,2.43
2023-06-22T06:35:07.007Z,2.43
2023-06-22T06:36:10.481Z,2.57
2023-06-22T06:37:13.964Z,2.00
2023-06-22T06:38:17.355Z,2.00
2023-06-22T06:39:20.865Z,2.43
2023-06-22T06:40:24.428Z,2.00
2023-06-22T06:41:28.026Z,2.43
2023-06-22T06:42:31.407Z,2.29
2023-06-22T06:43:34.892Z,2.29
2023-06-22T06:44:38.154Z,2.57
2023-06-22T06:45:41.588Z,3.00
2023-06-22T06:46:45.035Z,3.43
2023-06-22T06:47:48.374Z,3.67
2023-06-22T06:48:51.938Z,3.00
2023-06-22T06:49:55.223Z,2.57
2023-06-22T06:50:58.500Z,2.00
2023-06-22T06:52:01.776Z,2.14
2023-06-22T06:53:05.080Z,2.00
2023-06-22T06:54:08.250Z,2.00
2023-06-22T06:55:11.530Z,2.14
2023-06-22T06:56:14.778Z,3.43
2023-06-22T06:57:17.790Z,4.00
2023-06-22T06:58:20.985Z,4.00
2023-06-22T06:59:24.345Z,4.00
2023-06-22T07:00:27.641Z,3.57
2023-06-22T07:01:31.583Z,3.00
2023-06-22T07:02:34.790Z,3.00
2023-06-22T07:03:38.033Z,3.33
2023-06-22T07:04:41.279Z,3.57
2023-06-22T07:05:44.436Z,3.43
2023-06-22T07:06:47.908Z,4.00
2023-06-22T07:07:51.216Z,3.00
2023-06-22T07:08:54.601Z,3.43
2023-06-22T07:09:57.811Z,4.43
2023-06-22T07:11:01.200Z,5.00
2023-06-22T07:12:04.497Z,4.57
2023-06-22T07:13:07.877Z,3.86
2023-06-22T07:14:11.394Z,3.43
2023-06-22T07:15:14.849Z,4.00
2023-06-22T07:16:18.166Z,4.43
2023-06-22T07:17:21.734Z,4.43
2023-06-22T07:18:25.014Z,4.00
2023-06-22T07:19:28.292Z,4.43
2023-06-22T07:20:31.553Z,4.57
2023-06-22T07:21:34.975Z,4.00
2023-06-22T07:22:38.578Z,4.00
2023-06-22T07:23:41.892Z,4.00
2023-06-22T07:24:45.356Z,5.00
2023-06-22T07:25:48.725Z,4.67
2023-06-22T07:26:52.207Z,4.57
2023-06-22T07:27:55.592Z,4.00
2023-06-22T07:28:58.898Z,4.00
2023-06-22T07:30:02.270Z,4.00
2023-06-22T07:31:05.735Z,4.43
2023-06-22T07:32:09.111Z,4.57
2023-06-22T07:33:12.411Z,4.00
2023-06-22T07:34:15.714Z,4.00
2023-06-22T07:35:19.004Z,4.86
2023-06-22T07:36:22.179Z,4.57
2023-06-22T07:37:26.160Z,5.00
2023-06-22T07:38:29.468Z,5.00
2023-06-22T07:39:32.534Z,5.00
2023-06-22T07:40:35.822Z,5.43
2023-06-22T07:41:39.218Z,5.00
2023-06-22T07:42:42.301Z,5.29
2023-06-22T07:43:45.549Z,4.57
2023-06-22T07:44:48.761Z,4.43
2023-06-22T07:45:51.947Z,5.00
2023-06-22T07:46:55.031Z,5.00
2023-06-22T07:47:58.145Z,4.43
2023-06-22T07:49:01.309Z,5.00
2023-06-22T07:50:04.600Z,5.33
2023-06-22T07:51:07.844Z,4.83
2023-06-22T07:52:11.029Z,4.43
2023-06-22T07:53:14.415Z,5.43
2023-06-22T07:54:17.513Z,5.57
2023-06-22T07:55:20.579Z,5.57
2023-06-22T07:56:23.872Z,5.33
2023-06-22T07:57:26.848Z,6.00
2023-06-22T07:58:29.913Z,5.57
2023-06-22T07:59:33.099Z,5.00
2023-06-22T08:00:36.076Z,5.00
2023-06-22T08:01:39.227Z,5.43
2023-06-22T08:02:42.679Z,5.57
2023-06-22T08:03:45.867Z,5.00
2023-06-22T08:04:49.138Z,5.67
2023-06-22T08:05:52.306Z,5.00
2023-06-22T08:06:55.683Z,4.86
2023-06-22T08:07:58.826Z,5.57
2023-06-22T08:09:01.946Z,4.43
2023-06-22T08:10:05.094Z,5.00
2023-06-22T08:11:08.120Z,5.00
2023-06-22T08:12:11.381Z,6.00
2023-06-22T08:13:14.475Z,6.00
2023-06-22T08:14:17.644Z,6.00
2023-06-22T08:15:20.819Z,6.00
2023-06-22T08:16:23.803Z,6.71
2023-06-22T08:17:27.058Z,6.67
2023-06-22T08:18:30.172Z,6.00
2023-06-22T08:19:33.449Z,5.57
2023-06-22T08:20:36.536Z,5.00
2023-06-22T08:21:39.812Z,5.43
2023-06-22T08:22:42.981Z,6.00
2023-06-22T08:23:46.402Z,6.00
2023-06-22T08:24:49.587Z,6.71
2023-06-22T08:25:52.753Z,7.33
2023-06-22T08:26:55.821Z,7.00
2023-06-22T08:27:59.015Z,6.29
2023-06-22T08:29:02.192Z,5.57
2023-06-22T08:30:05.394Z,5.43
2023-06-22T08:31:08.491Z,6.00
2023-06-22T08:32:11.742Z,6.00
2023-06-22T08:33:19.835Z,6.00
2023-06-22T08:34:19.435Z,6.00
2023-06-22T08:35:22.513Z,6.00
2023-06-22T08:36:25.608Z,6.14
2023-06-22T08:37:28.983Z,6.86
2023-06-22T08:38:31.971Z,7.86
2023-06-22T08:39:36.133Z,8.33
2023-06-22T08:40:39.372Z,9.50
2023-06-22T08:41:42.624Z,9.00
2023-06-22T08:42:45.819Z,7.86
2023-06-22T08:43:48.907Z,9.86
2023-06-22T08:44:52.069Z,9.71
2023-06-22T08:45:55.251Z,9.86
2023-06-22T08:46:58.857Z,9.43
2023-06-22T08:48:02.279Z,10.43
2023-06-22T08:49:05.640Z,10.00
2023-06-22T08:50:09.027Z,9.57
2023-06-22T08:51:12.287Z,8.14
2023-06-22T08:52:15.568Z,7.57
2023-06-22T08:53:19.052Z,7.00
2023-06-22T08:54:22.243Z,6.57
2023-06-22T08:55:25.555Z,6.00
2023-06-22T08:56:28.718Z,6.00
2023-06-22T08:57:31.890Z,5.86
2023-06-22T08:58:35.278Z,6.14
2023-06-22T08:59:38.563Z,6.00
2023-06-22T09:00:41.758Z,5.57
2023-06-22T09:01:45.036Z,5.00
2023-06-22T09:02:48.243Z,5.43
2023-06-22T09:03:52.004Z,5.67
2023-06-22T09:04:55.540Z,5.00
2023-06-22T09:05:59.138Z,5.43
2023-06-22T09:07:02.879Z,5.57
2023-06-22T09:08:06.370Z,5.00
2023-06-22T09:09:09.864Z,5.00
2023-06-22T09:10:13.658Z,5.00
2023-06-22T09:11:18.070Z,5.00
2023-06-22T09:12:21.569Z,4.25
2023-06-22T09:13:24.948Z,4.43
2023-06-22T09:14:28.054Z,5.43
2023-06-22T09:15:33.161Z,5.67
2023-06-22T09:16:36.662Z,5.50
2023-06-22T09:17:40.401Z,6.71
2023-06-22T09:18:43.719Z,5.86
2023-06-22T09:19:47.200Z,6.86
2023-06-22T09:20:50.600Z,6.71
2023-06-22T09:21:54.090Z,6.00
2023-06-22T09:22:57.372Z,7.00
2023-06-22T09:24:00.759Z,6.67
2023-06-22T09:25:05.733Z,6.67
2023-06-22T09:26:08.645Z,6.62
2023-06-22T09:27:12.150Z,6.00
2023-06-22T09:28:15.228Z,5.43
2023-06-22T09:29:18.425Z,5.57
2023-06-22T09:30:21.503Z,5.43
2023-06-22T09:31:24.585Z,6.00
2023-06-22T09:32:27.790Z,5.57
2023-06-22T09:33:30.900Z,5.00
2023-06-22T09:34:34.018Z,5.43
2023-06-22T09:35:37.221Z,6.00
2023-06-22T09:36:40.307Z,5.14
2023-06-22T09:37:43.276Z,5.67
2023-06-22T09:38:46.452Z,5.43
2023-06-22T09:39:49.625Z,5.00
2023-06-22T09:40:52.994Z,5.33
2023-06-22T09:41:56.072Z,5.57
2023-06-22T09:42:59.463Z,5.57
2023-06-22T09:44:02.550Z,6.00
2023-06-22T09:45:05.725Z,6.00
2023-06-22T09:46:08.821Z,6.00
2023-06-22T09:47:11.922Z,6.00
2023-06-22T09:48:14.964Z,6.00
2023-06-22T09:49:18.040Z,6.33
2023-06-22T09:50:21.126Z,6.67
2023-06-22T09:51:24.294Z,6.29
2023-06-22T09:52:34.253Z,6.14
2023-06-22T09:53:31.528Z,6.00
2023-06-22T09:54:37.348Z,5.67
2023-06-22T09:55:40.524Z,5.00
2023-06-22T09:56:43.645Z,5.00
2023-06-22T09:57:46.807Z,5.43
2023-06-22T09:58:49.963Z,6.00
2023-06-22T09:59:53.047Z,5.83
2023-06-22T10:00:56.281Z,5.43
2023-06-22T10:01:59.619Z,5.57
2023-06-22T10:03:02.777Z,5.29
2023-06-22T10:04:06.234Z,5.86
2023-06-22T10:05:09.693Z,5.43
2023-06-22T10:06:13.059Z,6.00
2023-06-22T10:07:16.141Z,5.14
2023-06-22T10:08:19.412Z,4.33
2023-06-22T10:09:22.562Z,4.57
2023-06-22T10:10:25.711Z,4.00
2023-06-22T10:11:28.822Z,4.00
2023-06-22T10:12:33.598Z,4.33
2023-06-22T10:13:37.196Z,5.00
2023-06-22T10:14:40.561Z,4.57
2023-06-22T10:15:43.651Z,4.00
2023-06-22T10:16:47.024Z,4.43
2023-06-22T10:17:50.645Z,4.00
2023-06-22T10:18:54.000Z,4.43
2023-06-22T10:19:57.276Z,4.57
2023-06-22T10:21:04.000Z,5.00
2023-06-22T10:22:07.635Z,4.50
2023-06-22T10:23:11.275Z,4.00
2023-06-22T10:24:14.587Z,4.43
2023-06-22T10:25:17.925Z,5.00
2023-06-22T10:26:21.112Z,4.57
2023-06-22T10:27:24.370Z,4.33
2023-06-22T10:28:27.553Z,4.50
2023-06-22T10:29:30.760Z,4.43
2023-06-22T10:30:34.050Z,5.00
2023-06-22T10:31:37.211Z,5.57
2023-06-22T10:32:40.607Z,6.57
2023-06-22T10:33:44.073Z,6.00
2023-06-22T10:34:47.094Z,5.57
2023-06-22T10:35:50.395Z,5.00
2023-06-22T10:36:53.516Z,5.29
2023-06-22T10:37:56.487Z,5.00
2023-06-22T10:38:59.728Z,5.43
2023-06-22T10:40:02.844Z,5.57
2023-06-22T10:41:06.048Z,5.33
2023-06-22T10:42:09.217Z,6.57
2023-06-22T10:43:12.409Z,5.71
2023-06-22T10:44:16.712Z,5.43
2023-06-22T10:45:20.160Z,5.00
2023-06-22T10:46:23.518Z,5.14
2023-06-22T10:47:26.825Z,5.00
2023-06-22T10:48:30.157Z,5.00
2023-06-22T10:49:33.751Z,5.00
2023-06-22T10:50:37.039Z,5.00
2023-06-22T10:51:40.527Z,5.14
2023-06-22T10:52:43.917Z,5.57
2023-06-22T10:53:47.077Z,5.43
2023-06-22T10:54:50.501Z,6.33
2023-06-22T10:55:56.827Z,6.50
2023-06-22T10:56:57.880Z,6.00
2023-06-22T10:58:00.941Z,6.00
2023-06-22T10:59:04.059Z,6.00
2023-06-22T11:00:07.515Z,5.86
2023-06-22T11:01:19.755Z,5.29
2023-06-22T11:02:15.227Z,5.50
2023-06-22T11:03:18.643Z,6.43
2023-06-22T11:04:21.890Z,6.43
2023-06-22T11:05:25.047Z,6.67
2023-06-22T11:06:28.033Z,6.00
2023-06-22T11:07:31.209Z,6.00
2023-06-22T11:08:34.289Z,5.71
2023-06-22T11:09:37.330Z,6.00
2023-06-22T11:10:40.555Z,6.00
2023-06-22T11:11:43.745Z,5.57
2023-06-22T11:12:47.039Z,4.86
2023-06-22T11:13:51.542Z,5.43
2023-06-22T11:14:54.850Z,5.00
2023-06-22T11:15:58.224Z,4.43
2023-06-22T11:17:01.635Z,5.43
2023-06-22T11:18:04.895Z,6.00
2023-06-22T11:19:08.037Z,6.00
2023-06-22T11:20:11.338Z,6.00
2023-06-22T11:21:14.745Z,6.00
2023-06-22T11:22:18.026Z,6.00
2023-06-22T11:23:21.204Z,6.00
2023-06-22T11:24:24.285Z,6.00
2023-06-22T11:26:47.643Z,7.00
2023-06-22T11:27:50.607Z,6.57
2023-06-22T11:28:54.010Z,6.67
2023-06-22T11:29:57.386Z,7.86
2023-06-22T11:31:07.709Z,7.14
2023-06-22T11:32:05.235Z,7.50
2023-06-22T11:33:08.712Z,8.43
2023-06-22T11:34:11.864Z,7.57
2023-06-22T11:35:15.140Z,7.29
2023-06-22T11:36:18.307Z,8.00
2023-06-22T11:37:21.594Z,7.57
2023-06-22T11:38:24.795Z,7.00
2023-06-22T11:39:38.811Z,7.00
2023-06-22T11:40:32.493Z,7.00
2023-06-22T11:41:35.683Z,7.86
2023-06-22T11:42:39.074Z,7.43
2023-06-22T11:43:42.269Z,7.43
2023-06-22T11:44:45.437Z,7.86
2023-06-22T11:45:48.640Z,7.14
2023-06-22T11:46:51.710Z,8.00
2023-06-22T11:47:55.946Z,7.14
2023-06-22T11:48:58.916Z,7.00
2023-06-22T11:50:02.265Z,7.14
2023-06-22T11:51:05.125Z,6.00
2023-06-22T11:52:08.712Z,6.86
2023-06-22T11:53:12.102Z,7.29
2023-06-22T11:54:15.081Z,8.57
2023-06-22T11:55:18.164Z,8.00
2023-06-22T11:56:21.341Z,8.33
2023-06-22T11:57:24.525Z,8.14
2023-06-22T11:58:28.020Z,7.43
2023-06-22T11:59:31.092Z,8.43
2023-06-22T12:00:42.317Z,9.00
2023-06-22T12:01:38.697Z,9.00
2023-06-22T12:02:41.956Z,9.00
2023-06-22T12:03:45.179Z,9.00
2023-06-22T12:04:48.376Z,9.00
2023-06-22T12:05:51.647Z,9.00
2023-06-22T12:06:55.002Z,8.57
2023-06-22T12:07:58.302Z,8.57
2023-06-22T12:09:01.469Z,9.43
2023-06-22T12:10:04.568Z,9.57
2023-06-22T12:11:07.765Z,9.00
2023-06-22T12:12:11.039Z,8.67
2023-06-22T12:13:14.322Z,7.17
2023-06-22T12:14:17.353Z,7.67
2023-06-22T12:15:26.088Z,9.43
2023-06-22T12:16:29.270Z,8.75
2023-06-22T12:17:32.381Z,7.67
2023-06-22T12:18:35.547Z,8.57
2023-06-22T12:19:38.815Z,8.00
2023-06-22T12:20:42.068Z,8.43
2023-06-22T12:21:45.277Z,7.86
2023-06-22T12:22:48.438Z,9.00
2023-06-22T12:23:51.437Z,8.86
2023-06-22T12:24:54.715Z,8.00
2023-06-22T12:25:57.913Z,7.00
2023-06-22T12:27:01.114Z,7.57
2023-06-22T12:28:04.286Z,7.14
2023-06-22T12:29:07.585Z,6.00
2023-06-22T12:30:10.505Z,6.86
2023-06-22T12:31:13.761Z,7.67
2023-06-22T12:32:16.903Z,8.43
2023-06-22T12:33:19.891Z,8.29
2023-06-22T12:34:23.111Z,8.00
2023-06-22T12:35:26.272Z,8.00
2023-06-22T12:36:29.209Z,8.00
2023-06-22T12:37:32.402Z,7.14
2023-06-22T12:38:35.382Z,7.14
2023-06-22T12:39:38.781Z,7.57
2023-06-22T12:40:41.940Z,7.57
2023-06-22T12:41:45.068Z,7.00
2023-06-22T12:42:48.220Z,6.57
2023-06-22T12:43:51.380Z,6.00
2023-06-22T12:44:56.063Z,5.86
2023-06-22T12:45:58.790Z,4.50
2023-06-22T12:47:02.070Z,4.33
2023-06-22T12:48:05.288Z,5.29
2023-06-22T12:49:08.437Z,5.86
2023-06-22T12:50:11.548Z,5.43
2023-06-22T12:51:14.587Z,4.71
2023-06-22T12:52:17.766Z,5.00
2023-06-22T12:53:20.967Z,5.00
2023-06-22T12:54:24.056Z,4.71
2023-06-22T12:55:27.111Z,4.00
2023-06-22T12:56:30.301Z,5.00
2023-06-22T12:57:33.373Z,4.43
2023-06-22T12:58:36.569Z,5.29
2023-06-22T12:59:39.738Z,5.00
2023-06-22T13:00:42.821Z,5.00
2023-06-22T13:01:45.953Z,5.00
2023-06-22T13:02:49.125Z,5.00
2023-06-22T13:03:52.262Z,4.67
2023-06-22T13:04:55.372Z,4.00
2023-06-22T13:05:58.488Z,4.00
2023-06-22T13:07:01.609Z,4.00
2023-06-22T13:08:05.361Z,4.43
2023-06-22T13:09:20.600Z,4.75
2023-06-22T13:10:12.887Z,5.00
2023-06-22T13:11:16.178Z,5.00
2023-06-22T13:12:19.261Z,5.00
2023-06-22T13:13:23.043Z,5.00
2023-06-22T13:14:26.443Z,5.00
2023-06-22T13:15:30.408Z,4.57
2023-06-22T13:16:33.918Z,4.00
2023-06-22T13:17:37.363Z,4.00
2023-06-22T13:18:40.792Z,4.43
2023-06-22T13:19:44.106Z,4.86
2023-06-22T13:20:47.497Z,4.29
2023-06-22T13:21:50.955Z,4.00
2023-06-22T13:22:54.352Z,4.00
2023-06-22T13:23:58.246Z,4.00
2023-06-22T13:25:01.640Z,3.50
2023-06-22T13:26:04.920Z,4.00
2023-06-22T13:27:08.060Z,3.71
2023-06-22T13:28:16.185Z,3.67
2023-06-22T13:29:15.165Z,3.50
2023-06-22T13:30:18.334Z,3.00
2023-06-22T13:31:22.008Z,3.29
2023-06-22T13:32:25.502Z,3.57
2023-06-22T13:33:28.798Z,2.57
2023-06-22T13:34:32.171Z,3.00
2023-06-22T13:35:35.495Z,3.14
2023-06-22T13:36:38.769Z,3.29
2023-06-22T13:37:41.984Z,3.00
2023-06-22T13:38:45.150Z,3.00
2023-06-22T13:39:48.521Z,3.00
2023-06-22T13:40:51.945Z,3.00
2023-06-22T13:41:55.009Z,3.00
2023-06-22T13:42:58.398Z,3.33
2023-06-22T13:44:01.885Z,3.50
2023-06-22T13:45:05.270Z,4.00
2023-06-22T13:46:08.981Z,3.57
2023-06-22T13:47:12.568Z,2.43
2023-06-22T13:48:15.896Z,3.00
2023-06-22T13:49:19.184Z,2.71
2023-06-22T13:50:22.298Z,3.00
2023-06-22T13:51:25.610Z,3.00
2023-06-22T13:52:28.976Z,3.00
2023-06-22T13:53:32.245Z,3.00
2023-06-22T13:54:43.739Z,3.00
2023-06-22T13:55:46.813Z,2.50
2023-06-22T13:56:50.086Z,3.00
2023-06-22T13:57:53.116Z,3.00
2023-06-22T13:58:57.537Z,2.67
2023-06-22T14:00:00.552Z,3.00
2023-06-22T14:01:03.733Z,3.00
2023-06-22T14:02:07.016Z,2.86
2023-06-22T14:03:10.315Z,2.00
2023-06-22T14:04:13.421Z,2.00
2023-06-22T14:05:16.592Z,2.00
2023-06-22T14:06:19.648Z,2.00